createdAt,value
2018-09-05T00:02:24.919Z,63.10
2018-09-05T00:04:53.428Z,63.00
2018-09-05T00:07:21.939Z,63.00
2018-09-05T00:09:50.456Z,63.10
2018-09-05T00:12:18.967Z,63.20
2018-09-05T00:14:47.460Z,63.00
2018-09-05T00:17:15.963Z,63.20
2018-09-05T00:19:44.474Z,63.10
2018-09-05T00:22:12.967Z,63.10
2018-09-05T00:24:41.462Z,63.00
2018-09-05T00:27:09.959Z,63.20
2018-09-05T00:29:38.464Z,63.30
2018-09-05T00:32:06.973Z,63.30
2018-09-05T00:34:35.644Z,63.20
2018-09-05T00:37:04.216Z,63.30
2018-09-05T00:39:32.735Z,63.30
2018-09-05T00:42:01.245Z,63.30
2018-09-05T00:44:29.736Z,64.10
2018-09-05T00:46:58.447Z,63.40
2018-09-05T00:49:26.944Z,63.30
2018-09-05T00:51:55.458Z,63.50
2018-09-05T00:54:24.272Z,63.30
2018-09-05T00:56:52.771Z,63.40
2018-09-05T00:59:21.268Z,63.50
2018-09-05T01:01:49.964Z,63.60
2018-09-05T01:04:18.464Z,63.60
2018-09-05T01:06:46.966Z,63.50
2018-09-05T01:09:15.459Z,63.40
2018-09-05T01:11:43.952Z,63.40
2018-09-05T01:14:12.494Z,63.50
2018-09-05T01:16:41.473Z,63.50
2018-09-05T01:19:10.615Z,63.50
2018-09-05T01:21:39.147Z,63.60
2018-09-05T01:24:08.112Z,63.60
2018-09-05T01:26:36.671Z,63.50
2018-09-05T01:29:05.172Z,63.60
2018-09-05T01:31:33.678Z,63.50
2018-09-05T01:34:02.531Z,63.60
2018-09-05T01:36:31.079Z,63.50
2018-09-05T01:38:59.576Z,64.20
2018-09-05T01:41:28.072Z,63.50
2018-09-05T01:43:56.568Z,63.50
2018-09-05T01:46:25.075Z,63.60
2018-09-05T01:48:53.816Z,63.50
2018-09-05T01:51:22.311Z,63.50
2018-09-05T01:53:50.832Z,63.50
2018-09-05T01:56:19.328Z,63.60
2018-09-05T01:58:47.839Z,63.50
2018-09-05T02:01:16.335Z,63.60
2018-09-05T02:03:44.889Z,63.60
2018-09-05T02:06:13.447Z,63.70
2018-09-05T02:08:41.936Z,63.70
2018-09-05T02:11:10.439Z,63.60
2018-09-05T02:13:38.936Z,63.70
2018-09-05T02:16:07.439Z,63.70
2018-09-05T02:18:35.946Z,63.70
2018-09-05T02:21:04.443Z,63.70
2018-09-05T02:23:32.940Z,63.70
2018-09-05T02:26:01.438Z,63.70
2018-09-05T02:28:29.944Z,63.70
2018-09-05T02:30:58.444Z,63.60
2018-09-05T02:33:26.985Z,63.70
2018-09-05T02:35:55.770Z,63.70
2018-09-05T02:38:24.262Z,63.70
2018-09-05T02:40:53.161Z,63.70
2018-09-05T02:43:26.927Z,63.70
2018-09-05T02:45:55.431Z,63.70
2018-09-05T02:48:23.975Z,63.70
2018-09-05T02:50:52.796Z,63.70
2018-09-05T02:53:21.612Z,63.70
2018-09-05T02:55:55.233Z,63.90
2018-09-05T02:58:23.743Z,63.90
2018-09-05T03:00:52.251Z,63.80
2018-09-05T03:03:20.784Z,63.90
2018-09-05T03:05:49.277Z,63.90
2018-09-05T03:08:17.819Z,64.00
2018-09-05T03:10:46.302Z,63.90
2018-09-05T03:13:14.800Z,64.00
2018-09-05T03:15:43.292Z,64.00
2018-09-05T03:18:12.251Z,63.90
2018-09-05T03:20:41.248Z,63.90
2018-09-05T03:23:10.245Z,64.00
2018-09-05T03:25:39.291Z,64.00
2018-09-05T03:28:08.532Z,64.00
2018-09-05T03:30:37.519Z,63.90
2018-09-05T03:33:06.822Z,63.90
2018-09-05T03:35:35.508Z,64.10
2018-09-05T03:38:04.499Z,64.10
2018-09-05T03:40:33.335Z,64.10
2018-09-05T03:43:01.840Z,64.10
2018-09-05T03:45:30.339Z,64.00
2018-09-05T03:47:58.834Z,64.00
2018-09-05T03:50:27.339Z,64.00
2018-09-05T03:52:55.835Z,64.10
2018-09-05T03:55:24.333Z,64.00
2018-09-05T03:57:52.827Z,64.00
2018-09-05T04:00:21.332Z,64.00
2018-09-05T04:02:49.840Z,64.00
2018-09-05T04:05:18.341Z,64.00
2018-09-05T04:07:46.844Z,64.10
2018-09-05T04:10:15.399Z,64.00
2018-09-05T04:12:43.899Z,64.00
2018-09-05T04:15:12.667Z,64.00
2018-09-05T04:17:41.341Z,64.00
2018-09-05T04:20:10.499Z,64.10
2018-09-05T04:22:39.003Z,64.10
2018-09-05T04:25:07.514Z,64.10
2018-09-05T04:27:36.022Z,64.10
2018-09-05T04:30:04.527Z,64.10
2018-09-05T04:32:33.028Z,64.10
2018-09-05T04:35:01.816Z,64.10
2018-09-05T04:37:30.356Z,64.10
2018-09-05T04:39:59.182Z,64.00
2018-09-05T04:42:27.922Z,64.00
2018-09-05T04:44:56.435Z,64.00
2018-09-05T04:47:25.233Z,64.00
2018-09-05T04:49:53.744Z,64.00
2018-09-05T04:52:22.251Z,64.00
2018-09-05T04:54:51.164Z,64.00
2018-09-05T04:57:19.668Z,63.90
2018-09-05T04:59:48.231Z,63.90
2018-09-05T05:02:17.095Z,64.00
2018-09-05T05:04:45.663Z,63.90
2018-09-05T05:07:14.159Z,63.90
2018-09-05T05:09:42.667Z,63.80
2018-09-05T05:12:11.180Z,63.80
2018-09-05T05:14:39.673Z,63.70
2018-09-05T05:17:08.174Z,63.60
2018-09-05T05:19:36.668Z,63.60
2018-09-05T05:22:05.300Z,63.70
2018-09-05T05:24:33.791Z,63.70
2018-09-05T05:27:02.336Z,63.70
2018-09-05T05:29:30.840Z,63.50
2018-09-05T05:31:59.328Z,63.50
2018-09-05T05:34:27.890Z,63.70
2018-09-05T05:36:56.416Z,63.60
2018-09-05T05:39:24.926Z,63.60
2018-09-05T05:41:53.593Z,63.30
2018-09-05T05:44:22.111Z,63.30
2018-09-05T05:46:50.712Z,63.10
2018-09-05T05:49:19.131Z,62.90
2018-09-05T05:51:47.639Z,62.60
2018-09-05T05:54:16.132Z,62.30
2018-09-05T05:56:44.636Z,62.00
2018-09-05T05:59:13.135Z,61.40
2018-09-05T06:01:41.639Z,61.00
2018-09-05T06:04:10.148Z,60.70
2018-09-05T06:06:38.700Z,60.40
2018-09-05T06:09:09.511Z,60.00
2018-09-05T06:11:38.075Z,59.80
2018-09-05T06:14:06.559Z,59.50
2018-09-05T06:16:35.060Z,59.30
2018-09-05T06:19:03.879Z,59.20
2018-09-05T06:21:32.379Z,59.20
2018-09-05T06:24:00.938Z,59.00
2018-09-05T06:26:29.400Z,59.00
2018-09-05T06:28:57.927Z,59.10
2018-09-05T06:31:26.431Z,59.20
2018-09-05T06:33:54.939Z,59.20
2018-09-05T06:36:23.439Z,59.50
2018-09-05T06:38:51.963Z,58.60
2018-09-05T06:41:20.467Z,58.50
2018-09-05T06:43:48.970Z,58.20
2018-09-05T06:46:17.471Z,57.80
2018-09-05T06:48:45.975Z,57.50
2018-09-05T06:51:14.536Z,57.30
2018-09-05T06:53:42.999Z,57.20
2018-09-05T06:56:11.860Z,57.00
2018-09-05T06:58:40.406Z,56.80
2018-09-05T07:01:08.899Z,56.70
2018-09-05T07:03:37.441Z,56.40
2018-09-05T07:06:05.968Z,56.30
2018-09-05T07:08:34.471Z,56.10
2018-09-05T07:11:02.965Z,55.80
2018-09-05T07:13:31.456Z,55.60
2018-09-05T07:15:59.970Z,55.40
2018-09-05T07:18:28.512Z,55.10
2018-09-05T07:21:05.691Z,55.00
2018-09-05T07:23:25.599Z,54.60
2018-09-05T07:25:54.118Z,54.30
2018-09-05T07:28:22.619Z,54.20
2018-09-05T07:30:51.176Z,53.90
2018-09-05T07:33:19.634Z,53.60
2018-09-05T07:35:48.137Z,53.30
2018-09-05T07:38:16.659Z,52.80
2018-09-05T07:40:45.156Z,52.50
2018-09-05T07:43:13.668Z,52.10
2018-09-05T07:45:42.221Z,51.90
2018-09-05T07:48:10.771Z,51.50
2018-09-05T07:50:39.588Z,51.30
2018-09-05T07:53:08.083Z,51.00
2018-09-05T07:55:36.579Z,50.80
2018-09-05T07:58:05.631Z,50.50
2018-09-05T08:00:34.406Z,50.30
2018-09-05T08:03:02.919Z,50.20
2018-09-05T08:05:31.431Z,50.00
2018-09-05T08:07:59.947Z,49.70
2018-09-05T08:10:28.596Z,49.60
2018-09-05T08:12:57.101Z,49.50
2018-09-05T08:15:25.606Z,49.50
2018-09-05T08:17:54.137Z,49.40
2018-09-05T08:20:22.642Z,49.40
2018-09-05T08:22:51.144Z,49.20
2018-09-05T08:25:19.647Z,49.00
2018-09-05T08:27:48.150Z,49.20
2018-09-05T08:30:16.775Z,49.10
2018-09-05T08:32:45.304Z,49.10
2018-09-05T08:35:13.996Z,49.30
2018-09-05T08:37:42.479Z,49.20
2018-09-05T08:40:10.852Z,49.50
2018-09-05T08:42:39.381Z,49.60
2018-09-05T08:45:08.059Z,49.70
2018-09-05T08:47:36.556Z,49.70
2018-09-05T08:50:05.141Z,49.90
2018-09-05T08:52:33.603Z,50.10
2018-09-05T08:55:02.122Z,50.50
2018-09-05T08:57:30.631Z,50.60
2018-09-05T08:59:59.140Z,50.70
2018-09-05T09:02:27.645Z,50.80
2018-09-05T09:04:56.287Z,50.80
2018-09-05T09:07:24.787Z,50.90
2018-09-05T09:09:53.348Z,51.20
2018-09-05T09:12:21.921Z,51.30
2018-09-05T09:14:50.411Z,51.80
2018-09-05T09:17:18.900Z,52.00
2018-09-05T09:19:47.399Z,52.00
2018-09-05T09:22:15.907Z,52.00
2018-09-05T09:24:44.463Z,52.70
2018-09-05T09:27:13.012Z,52.10
2018-09-05T09:29:41.513Z,52.40
2018-09-05T09:32:10.016Z,52.40
2018-09-05T09:34:38.524Z,52.40
2018-09-05T09:37:07.298Z,52.70
2018-09-05T09:39:35.785Z,52.50
2018-09-05T09:42:04.671Z,52.60
2018-09-05T09:44:33.188Z,52.70
2018-09-05T09:47:01.690Z,52.60
2018-09-05T09:49:30.245Z,52.70
2018-09-05T09:52:03.871Z,52.60
2018-09-05T09:54:32.703Z,52.70
2018-09-05T09:57:01.696Z,52.80
2018-09-05T09:59:30.267Z,52.80
2018-09-05T10:02:03.940Z,52.90
2018-09-05T10:04:37.696Z,52.90
2018-09-05T10:07:11.506Z,52.80
2018-09-05T10:09:45.140Z,52.90
2018-09-05T10:12:18.903Z,53.00
2018-09-05T10:14:51.153Z,53.10
2018-09-05T10:17:24.883Z,53.30
2018-09-05T10:19:58.271Z,53.50
2018-09-05T10:22:27.294Z,53.50
2018-09-05T10:24:56.873Z,53.60
2018-09-05T10:27:26.193Z,53.60
2018-09-05T10:29:55.472Z,53.70
2018-09-05T10:32:24.765Z,53.80
2018-09-05T10:34:54.063Z,53.90
2018-09-05T10:37:22.615Z,53.90
2018-09-05T10:39:51.441Z,53.90
2018-09-05T10:42:20.127Z,54.00
2018-09-05T10:44:48.615Z,54.10
2018-09-05T10:47:17.114Z,54.20
2018-09-05T10:49:45.620Z,54.20
2018-09-05T10:52:14.113Z,54.30
2018-09-05T10:54:43.166Z,54.40
2018-09-05T10:57:11.683Z,54.40
2018-09-05T10:59:40.187Z,54.30
2018-09-05T11:02:09.055Z,54.20
2018-09-05T11:04:37.547Z,54.20
2018-09-05T11:07:06.420Z,54.20
2018-09-05T11:09:34.915Z,54.40
2018-09-05T11:12:03.411Z,54.50
2018-09-05T11:14:31.916Z,54.60
2018-09-05T11:17:00.406Z,54.80
2018-09-05T11:19:28.946Z,54.70
2018-09-05T11:21:57.763Z,54.90
2018-09-05T11:24:26.312Z,55.00
2018-09-05T11:26:54.816Z,55.00
2018-09-05T11:29:23.313Z,54.90
2018-09-05T11:31:52.024Z,54.90
2018-09-05T11:34:20.558Z,54.90
2018-09-05T11:39:47.983Z,54.90
2018-09-05T11:42:16.476Z,55.10
2018-09-05T11:44:45.212Z,55.00
2018-09-05T11:47:13.721Z,54.90
2018-09-05T11:49:42.216Z,55.00
2018-09-05T11:52:10.719Z,54.90
2018-09-05T11:54:39.223Z,55.00
2018-09-05T11:57:07.754Z,55.10
2018-09-05T11:59:36.277Z,54.90
2018-09-05T12:02:04.871Z,55.00
2018-09-05T12:04:33.763Z,55.20
2018-09-05T12:07:02.348Z,55.20
2018-09-05T12:09:30.844Z,55.40
2018-09-05T12:11:59.354Z,55.40
2018-09-05T12:14:27.856Z,55.50
2018-09-05T12:16:56.412Z,55.40
2018-09-05T12:19:24.916Z,55.30
2018-09-05T12:21:53.420Z,55.30
2018-09-05T12:24:21.931Z,55.40
2018-09-05T12:26:50.434Z,55.40
2018-09-05T12:29:18.988Z,55.40
2018-09-05T12:31:47.487Z,55.50
2018-09-05T12:34:15.987Z,55.40
2018-09-05T12:36:44.479Z,55.50
2018-09-05T12:39:14.075Z,55.50
2018-09-05T12:41:43.357Z,55.60
2018-09-05T12:44:12.439Z,55.70
2018-09-05T12:46:40.935Z,55.70
2018-09-05T12:49:09.615Z,55.80
2018-09-05T12:51:38.183Z,55.80
2018-09-05T12:54:07.502Z,55.90
2018-09-05T12:56:36.003Z,56.00
2018-09-05T12:59:04.876Z,56.00
2018-09-05T13:01:33.388Z,56.00
2018-09-05T13:04:02.519Z,56.00
2018-09-05T13:06:31.094Z,56.00
2018-09-05T13:09:00.216Z,56.20
2018-09-05T13:11:28.858Z,56.10
2018-09-05T13:13:57.230Z,56.20
2018-09-05T13:16:25.719Z,56.20
2018-09-05T13:18:54.211Z,56.10
2018-09-05T13:21:22.715Z,56.10
2018-09-05T13:23:51.225Z,56.10
2018-09-05T13:26:19.739Z,56.20
2018-09-05T13:28:48.231Z,56.30
2018-09-05T13:31:16.747Z,56.20
2018-09-05T13:33:45.277Z,56.30
2018-09-05T13:36:13.855Z,56.30
2018-09-05T13:38:42.367Z,56.40
2018-09-05T13:41:10.899Z,56.30
2018-09-05T13:43:39.395Z,56.30
2018-09-05T13:46:08.243Z,56.30
2018-09-05T13:48:36.748Z,56.30
2018-09-05T13:51:05.465Z,56.40
2018-09-05T13:53:33.986Z,56.40
2018-09-05T13:56:02.483Z,56.40
2018-09-05T13:58:31.808Z,56.60
2018-09-05T14:01:00.331Z,56.70
2018-09-05T14:06:03.807Z,56.80
2018-09-05T14:08:32.318Z,56.80
2018-09-05T14:11:00.820Z,56.90
2018-09-05T14:13:29.399Z,56.90
2018-09-05T14:15:57.859Z,56.90
2018-09-05T14:18:26.735Z,56.90
2018-09-05T14:20:55.235Z,56.90
2018-09-05T14:23:23.753Z,57.00
2018-09-05T14:25:52.256Z,57.00
2018-09-05T14:28:20.768Z,56.90
2018-09-05T14:30:49.272Z,57.50
2018-09-05T14:33:17.865Z,56.90
2018-09-05T14:35:46.348Z,56.90
2018-09-05T14:38:14.832Z,57.10
2018-09-05T14:40:43.363Z,57.20
2018-09-05T14:43:12.201Z,57.10
2018-09-05T14:45:40.692Z,57.10
2018-09-05T14:48:09.271Z,57.10
2018-09-05T14:50:37.712Z,57.10
2018-09-05T14:53:06.220Z,57.10
2018-09-05T14:55:34.715Z,57.20
2018-09-05T14:58:03.230Z,57.30
2018-09-05T15:00:31.734Z,57.30
2018-09-05T15:03:00.236Z,57.40
2018-09-05T15:05:28.744Z,57.30
2018-09-05T15:07:57.244Z,57.40
2018-09-05T15:10:25.860Z,57.40
2018-09-05T15:12:54.360Z,57.40
2018-09-05T15:15:22.873Z,57.40
2018-09-05T15:17:51.380Z,57.40
2018-09-05T15:20:19.881Z,57.40
2018-09-05T15:22:48.395Z,57.40
2018-09-05T15:25:16.904Z,57.40
2018-09-05T15:27:45.410Z,57.40
2018-09-05T15:30:13.920Z,57.50
2018-09-05T15:32:42.415Z,57.70
2018-09-05T15:35:10.907Z,57.70
2018-09-05T15:37:39.407Z,58.30
2018-09-05T15:40:07.916Z,57.80
2018-09-05T15:42:36.516Z,57.70
2018-09-05T15:45:05.539Z,57.70
2018-09-05T15:47:34.035Z,57.70
2018-09-05T15:50:02.601Z,57.80
2018-09-05T15:52:31.060Z,57.80
2018-09-05T15:54:59.563Z,57.80
2018-09-05T15:57:28.171Z,57.90
2018-09-05T15:59:56.695Z,58.00
2018-09-05T16:02:25.220Z,58.00
2018-09-05T16:04:53.711Z,58.00
2018-09-05T16:07:22.215Z,58.10
2018-09-05T16:09:50.711Z,58.10
2018-09-05T16:12:19.212Z,57.90
2018-09-05T16:14:47.713Z,57.90
2018-09-05T16:17:16.218Z,57.90
2018-09-05T16:19:44.719Z,57.90
2018-09-05T16:22:16.179Z,58.00
2018-09-05T16:24:44.685Z,58.00
2018-09-05T16:27:13.199Z,58.10
2018-09-05T16:29:41.747Z,58.20
2018-09-05T16:32:10.208Z,58.30
2018-09-05T16:34:38.716Z,58.20
2018-09-05T16:37:07.223Z,58.30
2018-09-05T16:39:35.723Z,58.40
2018-09-05T16:42:04.209Z,58.40
2018-09-05T16:44:32.707Z,58.40
2018-09-05T16:47:01.216Z,58.50
2018-09-05T16:49:29.708Z,58.50
2018-09-05T16:51:58.532Z,58.60
2018-09-05T16:54:27.316Z,58.70
2018-09-05T16:56:55.824Z,58.70
2018-09-05T16:59:24.560Z,58.70
2018-09-05T17:01:53.072Z,58.70
2018-09-05T17:04:21.571Z,58.60
2018-09-05T17:06:50.091Z,58.80
2018-09-05T17:09:18.604Z,58.80
2018-09-05T17:11:47.110Z,58.80
2018-09-05T17:14:15.616Z,58.80
2018-09-05T17:16:44.147Z,58.90
2018-09-05T17:19:12.662Z,58.90
2018-09-05T17:21:41.181Z,58.90
2018-09-05T17:24:09.687Z,58.70
2018-09-05T17:26:38.178Z,58.70
2018-09-05T17:29:07.574Z,58.70
2018-09-05T17:31:36.068Z,58.70
2018-09-05T17:34:05.632Z,58.70
2018-09-05T17:36:34.182Z,58.60
2018-09-05T17:39:03.300Z,58.60
2018-09-05T17:41:31.792Z,58.80
2018-09-05T17:44:00.299Z,58.70
2018-09-05T17:46:28.787Z,58.70
2018-09-05T17:48:57.274Z,58.80
2018-09-05T17:51:25.775Z,58.70
2018-09-05T17:53:54.276Z,59.00
2018-09-05T17:56:23.112Z,59.20
2018-09-05T17:58:51.800Z,59.20
2018-09-05T18:01:21.917Z,59.40
2018-09-05T18:03:50.408Z,59.40
2018-09-05T18:06:18.947Z,59.50
2018-09-05T18:08:47.465Z,59.60
2018-09-05T18:11:15.960Z,59.60
2018-09-05T18:13:44.831Z,59.80
2018-09-05T18:16:14.095Z,59.60
2018-09-05T18:18:42.879Z,59.80
2018-09-05T18:21:11.824Z,59.60
2018-09-05T18:23:40.331Z,59.60
2018-09-05T18:26:09.232Z,59.60
2018-09-05T18:28:37.732Z,59.70
2018-09-05T18:31:06.269Z,59.70
2018-09-05T18:33:34.767Z,59.80
2018-09-05T18:36:03.275Z,59.80
2018-09-05T18:38:31.796Z,59.90
2018-09-05T18:41:00.301Z,59.90
2018-09-05T18:46:03.517Z,60.10
2018-09-05T18:48:32.031Z,60.10
2018-09-05T18:51:00.532Z,60.10
2018-09-05T18:53:29.049Z,60.10
2018-09-05T18:55:57.587Z,60.20
2018-09-05T18:58:26.083Z,60.20
2018-09-05T19:00:54.579Z,60.10
2018-09-05T19:03:23.093Z,60.20
2018-09-05T19:05:51.605Z,60.20
2018-09-05T19:08:20.127Z,60.20
2018-09-05T19:10:48.644Z,60.20
2018-09-05T19:13:17.149Z,60.10
2018-09-05T19:15:45.655Z,60.10
2018-09-05T19:18:14.171Z,60.20
2018-09-05T19:20:42.676Z,60.30
2018-09-05T19:23:11.175Z,60.20
2018-09-05T19:25:40.047Z,60.30
2018-09-05T19:28:08.555Z,60.30
2018-09-05T19:30:37.047Z,60.30
2018-09-05T19:33:05.540Z,60.50
2018-09-05T19:35:34.093Z,60.40
2018-09-05T19:38:02.559Z,60.30
2018-09-05T19:40:31.052Z,60.40
2018-09-05T19:42:59.559Z,60.40
2018-09-05T19:45:28.051Z,60.50
2018-09-05T19:47:56.571Z,60.40
2018-09-05T19:50:25.080Z,60.50
2018-09-05T19:52:53.576Z,60.50
2018-09-05T19:55:22.076Z,60.50
2018-09-05T19:57:50.580Z,60.50
2018-09-05T20:00:19.079Z,60.50
2018-09-05T20:02:47.588Z,61.30
2018-09-05T20:05:16.084Z,61.40
2018-09-05T20:07:44.602Z,60.70
2018-09-05T20:10:13.353Z,60.70
2018-09-05T20:12:41.847Z,60.70
2018-09-05T20:15:10.358Z,60.70
2018-09-05T20:17:38.879Z,60.70
2018-09-05T20:20:07.388Z,60.70
2018-09-05T20:22:35.922Z,60.70
2018-09-05T20:25:04.436Z,60.70
2018-09-05T20:27:32.931Z,60.80
2018-09-05T20:30:01.427Z,60.80
2018-09-05T20:32:29.931Z,60.80
2018-09-05T20:34:58.427Z,60.90
2018-09-05T20:37:26.918Z,60.90
2018-09-05T20:39:55.694Z,60.90
2018-09-05T20:42:24.199Z,60.90
2018-09-05T20:44:52.727Z,60.90
2018-09-05T20:47:21.221Z,60.90
2018-09-05T20:49:49.715Z,61.00
2018-09-05T20:52:18.268Z,61.00
2018-09-05T20:54:46.738Z,61.10
2018-09-05T20:57:15.231Z,61.80
2018-09-05T20:59:43.728Z,61.20
2018-09-05T21:02:12.219Z,61.20
2018-09-05T21:04:40.758Z,61.20
2018-09-05T21:07:09.259Z,61.20
2018-09-05T21:09:37.787Z,61.40
2018-09-05T21:12:06.484Z,61.30
2018-09-05T21:14:34.987Z,61.30
2018-09-05T21:17:03.879Z,61.40
2018-09-05T21:19:32.727Z,61.40
2018-09-05T21:22:01.259Z,61.30
2018-09-05T21:24:29.759Z,61.30
2018-09-05T21:26:58.251Z,61.40
2018-09-05T21:29:26.754Z,61.40
2018-09-05T21:31:55.267Z,61.40
2018-09-05T21:34:23.767Z,61.40
2018-09-05T21:36:52.259Z,61.40
2018-09-05T21:39:20.756Z,61.50
2018-09-05T21:41:49.255Z,61.50
2018-09-05T21:44:17.763Z,61.60
2018-09-05T21:46:46.259Z,61.60
2018-09-05T21:49:14.750Z,61.60
2018-09-05T21:51:43.260Z,61.70
2018-09-05T21:54:11.772Z,61.60
2018-09-05T21:56:40.298Z,61.60
2018-09-05T21:59:08.798Z,61.70
2018-09-05T22:01:37.283Z,61.70
2018-09-05T22:04:05.783Z,61.80
2018-09-05T22:06:34.303Z,61.80
2018-09-05T22:09:02.847Z,61.80
2018-09-05T22:11:31.371Z,61.90
2018-09-05T22:13:59.880Z,61.90
2018-09-05T22:16:28.376Z,62.00
2018-09-05T22:18:56.883Z,61.90
2018-09-05T22:21:25.386Z,62.00
2018-09-05T22:23:53.896Z,62.70
2018-09-05T22:26:22.391Z,62.10
2018-09-05T22:28:50.907Z,62.10
2018-09-05T22:31:19.418Z,62.20
2018-09-05T22:33:47.915Z,62.20
2018-09-05T22:36:16.443Z,62.10
2018-09-05T22:38:44.947Z,62.30
2018-09-05T22:41:13.439Z,62.20
2018-09-05T22:43:52.923Z,62.30
2018-09-05T22:46:32.484Z,62.20
2018-09-05T22:51:58.701Z,62.30
2018-09-05T22:56:54.944Z,62.30
2018-09-05T22:59:54.162Z,62.30
2018-09-05T23:02:41.178Z,62.40
2018-09-05T23:05:34.439Z,62.40
2018-09-05T23:08:12.135Z,62.50
2018-09-05T23:10:51.708Z,62.30
2018-09-05T23:13:31.292Z,62.30
2018-09-05T23:18:15.504Z,62.20
2018-09-05T23:21:20.917Z,62.40
2018-09-05T23:24:00.022Z,62.40
2018-09-05T23:26:29.308Z,63.20
2018-09-05T23:28:58.204Z,62.50
2018-09-05T23:31:26.997Z,63.20
2018-09-05T23:33:55.542Z,62.50
2018-09-05T23:36:24.583Z,62.60
2018-09-05T23:38:53.120Z,62.50
2018-09-05T23:41:21.650Z,62.50
2018-09-05T23:43:50.497Z,62.60
2018-09-05T23:46:19.022Z,62.60
2018-09-05T23:48:47.541Z,63.30
2018-09-05T23:51:16.049Z,62.60
2018-09-05T23:53:44.579Z,62.60
2018-09-05T23:56:13.946Z,62.60
2018-09-05T23:58:42.466Z,62.70
